Terminal Aerodrome Forecast
Issued by NWS

Home | Current Version | Previous Version | Text Only | Print | Product List | Glossary On
Versions: 1 2 3 4 5 6 7 8 9 10 11 12
638
FTUS45 KGGW 291124
TAFSDY
TAF
KSDY 291124Z 2912/3012 00000KT 1/4SM FZFG BKN001
     FM291400 20005KT 3SM BR SCT001
     FM291500 21006KT P6SM BKN070
     FM291700 23010KT P6SM SCT190
     FM300200 24005KT P6SM BKN200
     FM300900 17004KT P6SM BKN090=

USA.gov is the U.S. government's official web portal to all federal, state and local government web resources and services.